Terminal Aerodrome Forecast
Issued by NWS Wakefield, VA

Home | Current Version | Previous Version | Text Only | Print | Product List | Glossary On
Versions: 1 2 3 4 5 6 7 8 9 10 11 12 13 14 15
000
FTUS41 KAKQ 012322
TAFORF
TAF
KORF 012322Z 0200/0224 04003KT P6SM SKC
     FM020200 14004KT P6SM SKC
     FM021100 19007KT P6SM SKC
     FM021700 20010G18KT P6SM SCT250=

USA.gov is the U.S. government's official web portal to all federal, state and local government web resources and services.